Time;durP1;ratioP1;P1;durP2;ratioP2;P2;SDS_P1;SDS_P2;PMS_P1;PMS_P2;Temp;Humidity;BMP_temperature;BMP_pressure;BME280_temperature;BME280_humidity;BME280_pressure;Samples;Min_cycle;Max_cycle;Signal;HPM_P1;HPM_P2
2024/03/24 00:00:13;;;;;;;4.82;1.30;;;6.00;69.10;;;;;;5117614;28;20362;-65
2024/03/24 00:06:01;;;;;;;2.45;1.15;;;5.90;71.00;;;;;;5117295;28;20152;-65
2024/03/24 00:08:27;;;;;;;2.05;0.90;;;5.90;71.40;;;;;;5117251;28;20184;-65
2024/03/24 00:10:55;;;;;;;2.37;1.20;;;5.80;72.40;;;;;;5116828;28;20560;-66
2024/03/24 00:13:21;;;;;;;4.35;1.17;;;5.90;72.00;;;;;;5117240;28;20422;-65
2024/03/24 00:15:50;;;;;;;2.70;1.20;;;5.80;72.60;;;;;;5116828;28;20569;-65
2024/03/24 00:18:34;;;;;;;2.38;1.45;;;5.80;73.60;;;;;;5117059;28;20889;-65
2024/03/24 00:21:56;;;;;;;2.28;1.15;;;5.80;74.30;;;;;;5117391;28;20607;-65
2024/03/24 00:24:22;;;;;;;5.57;1.10;;;5.70;74.30;;;;;;5117591;28;20196;-66
2024/03/24 00:26:49;;;;;;;3.67;1.63;;;5.70;75.60;;;;;;5118091;28;20177;-65
2024/03/24 00:32:39;;;;;;;3.65;1.30;;;5.70;76.00;;;;;;5116766;28;20156;-65
2024/03/24 00:45:50;;;;;;;2.00;0.80;;;5.70;75.10;;;;;;5116591;28;20230;-66
2024/03/24 00:51:40;;;;;;;2.72;0.93;;;5.60;75.90;;;;;;5115076;28;20156;-65
2024/03/24 00:54:07;;;;;;;1.80;0.60;;;5.60;75.10;;;;;;5116608;28;20259;-65
2024/03/24 00:56:34;;;;;;;2.25;0.85;;;5.60;75.10;;;;;;5117026;28;20172;-66
2024/03/24 01:02:23;;;;;;;2.50;0.88;;;5.50;75.40;;;;;;5116412;28;20266;-65
2024/03/24 01:04:50;;;;;;;3.95;0.80;;;5.50;75.40;;;;;;5116015;28;20212;-65
2024/03/24 01:07:18;;;;;;;3.47;1.05;;;5.60;75.30;;;;;;5116039;28;20172;-65
2024/03/24 01:09:45;;;;;;;1.95;0.63;;;5.60;75.40;;;;;;5116857;28;20181;-66
2024/03/24 01:15:33;;;;;;;2.00;0.70;;;5.60;74.90;;;;;;5115576;28;20172;-67
2024/03/24 01:18:00;;;;;;;2.38;0.75;;;5.60;75.40;;;;;;5115546;28;20249;-65
2024/03/24 01:20:27;;;;;;;2.22;0.70;;;5.50;75.60;;;;;;5115502;28;20224;-66
2024/03/24 01:22:54;;;;;;;1.88;0.70;;;5.50;76.70;;;;;;5115677;28;20581;-66
2024/03/24 01:25:21;;;;;;;1.80;0.60;;;5.40;77.40;;;;;;5115828;28;20202;-65
2024/03/24 01:27:47;;;;;;;2.10;0.70;;;5.50;78.10;;;;;;5115646;28;20245;-66
2024/03/24 01:30:14;;;;;;;1.90;0.70;;;5.50;78.40;;;;;;5115367;28;20184;-66
2024/03/24 01:32:40;;;;;;;2.67;0.80;;;5.50;78.30;;;;;;5114660;28;20192;-66
2024/03/24 01:35:09;;;;;;;2.07;0.80;;;5.70;78.30;;;;;;5114376;28;20206;-65
2024/03/24 01:37:36;;;;;;;2.50;0.80;;;5.70;78.20;;;;;;5113738;28;20995;-65
2024/03/24 01:40:57;;;;;;;2.00;0.80;;;5.70;78.60;;;;;;5116190;28;20204;-65
2024/03/24 01:43:25;;;;;;;3.28;0.90;;;5.80;78.80;;;;;;5116306;28;20662;-65
2024/03/24 01:45:52;;;;;;;3.45;1.08;;;5.80;78.30;;;;;;5116031;28;20230;-65
2024/03/24 01:51:41;;;;;;;2.13;1.00;;;5.90;77.70;;;;;;5115220;28;20152;-66
2024/03/24 01:57:30;;;;;;;1.90;0.80;;;6.00;75.90;;;;;;5114945;28;20179;-65
2024/03/24 02:03:20;;;;;;;2.85;0.80;;;6.00;74.60;;;;;;5115024;28;20687;-66
2024/03/24 02:06:37;;;;;;;2.00;0.80;;;6.00;74.60;;;;;;5115642;28;20176;-65
2024/03/24 02:09:04;;;;;;;1.80;0.75;;;6.00;74.90;;;;;;5114026;28;20226;-65
2024/03/24 02:18:06;;;;;;;5.60;1.60;;;5.90;75.80;;;;;;5114308;28;20275;-66
2024/03/24 02:20:33;;;;;;;2.25;0.90;;;5.90;76.10;;;;;;5115644;28;20229;-65
2024/03/24 02:26:23;;;;;;;2.10;1.00;;;5.90;77.60;;;;;;5114268;28;20194;-66
2024/03/24 02:29:31;;;;;;;3.95;1.85;;;5.90;77.30;;;;;;5115442;28;20246;-66
2024/03/24 02:31:57;;;;;;;2.13;1.05;;;5.90;77.20;;;;;;5113698;28;20606;-65
2024/03/24 02:34:24;;;;;;;2.23;0.80;;;6.00;76.50;;;;;;5114269;28;20184;-66
2024/03/24 02:40:13;;;;;;;2.53;1.08;;;6.00;75.90;;;;;;5114590;28;20655;-66
2024/03/24 02:43:12;;;;;;;2.60;1.20;;;5.90;76.30;;;;;;5113789;28;20252;-65
2024/03/24 02:45:39;;;;;;;2.50;1.40;;;5.90;75.20;;;;;;5114930;28;20169;-66
2024/03/24 02:48:05;;;;;;;2.97;1.45;;;5.80;75.20;;;;;;5115248;28;20234;-66
2024/03/24 02:53:54;;;;;;;3.20;1.30;;;5.80;74.70;;;;;;5110340;28;20207;-65
2024/03/24 02:56:20;;;;;;;5.75;1.15;;;5.70;75.20;;;;;;5094136;28;20185;-65
2024/03/24 02:58:49;;;;;;;2.67;0.97;;;5.70;75.20;;;;;;5094463;28;20491;-66
2024/03/24 03:01:14;;;;;;;3.30;0.95;;;5.70;76.10;;;;;;5114539;28;20450;-65
2024/03/24 03:03:45;;;;;;;2.90;0.80;;;5.70;76.20;;;;;;5113699;28;20578;-65
2024/03/24 03:06:45;;;;;;;9.50;0.95;;;5.80;76.30;;;;;;5114701;28;20472;-65
2024/03/24 03:12:40;;;;;;;4.38;0.93;;;5.90;75.60;;;;;;5113484;28;20163;-65
2024/03/24 03:15:14;;;;;;;9.48;1.25;;;5.90;74.90;;;;;;5112932;28;20271;-66
2024/03/24 03:17:41;;;;;;;2.00;0.98;;;5.90;74.50;;;;;;5110380;28;20651;-65
2024/03/24 03:20:12;;;;;;;2.95;0.90;;;5.90;74.40;;;;;;5114321;28;20392;-65
2024/03/24 03:22:39;;;;;;;2.65;0.93;;;5.90;75.00;;;;;;5113076;28;20687;-66
2024/03/24 03:25:07;;;;;;;3.00;0.70;;;5.80;75.00;;;;;;5112761;28;20204;-66
2024/03/24 03:27:36;;;;;;;3.65;0.70;;;5.80;74.70;;;;;;5113599;28;20188;-65
2024/03/24 03:30:10;;;;;;;2.15;0.90;;;5.80;74.70;;;;;;5113634;28;20191;-65
2024/03/24 03:33:24;;;;;;;3.55;1.10;;;5.80;75.00;;;;;;5113596;28;20183;-66
2024/03/24 03:35:50;;;;;;;5.22;1.10;;;5.80;75.00;;;;;;5113799;28;20619;-65
2024/03/24 03:38:17;;;;;;;5.27;1.70;;;5.90;75.30;;;;;;5113561;28;20179;-65
2024/03/24 03:40:46;;;;;;;3.47;1.30;;;5.90;74.70;;;;;;5113395;28;20892;-66
2024/03/24 03:43:16;;;;;;;4.55;0.90;;;5.90;74.90;;;;;;5113760;28;20312;-65
2024/03/24 03:45:45;;;;;;;2.40;1.10;;;5.90;74.10;;;;;;5113568;28;20188;-66
2024/03/24 03:48:11;;;;;;;2.88;1.30;;;5.90;74.00;;;;;;5113979;28;20190;-65
2024/03/24 03:50:41;;;;;;;3.70;1.48;;;5.80;74.20;;;;;;5113958;28;20592;-65
2024/03/24 03:53:10;;;;;;;3.65;1.40;;;5.80;73.80;;;;;;5072805;28;20180;-65
2024/03/24 03:55:37;;;;;;;3.13;1.40;;;5.80;73.70;;;;;;5073162;28;20192;-66
2024/03/24 03:58:05;;;;;;;2.85;1.30;;;5.80;72.80;;;;;;5072813;28;20265;-65
2024/03/24 04:03:56;;;;;;;4.18;1.15;;;5.60;73.50;;;;;;5112866;28;20256;-66
2024/03/24 04:06:41;;;;;;;2.05;1.00;;;5.60;74.40;;;;;;5114408;28;20173;-66
2024/03/24 04:12:34;;;;;;;2.05;0.90;;;5.50;75.30;;;;;;5113206;28;20244;-66
2024/03/24 04:21:48;;;;;;;2.00;0.63;;;5.60;73.90;;;;;;5113259;28;20179;-66
2024/03/24 04:24:14;;;;;;;2.10;0.90;;;5.60;73.90;;;;;;5112364;28;20299;-66
2024/03/24 04:26:43;;;;;;;1.90;0.70;;;5.60;74.20;;;;;;5113363;28;20272;-66
2024/03/24 04:29:09;;;;;;;3.70;1.10;;;5.60;73.50;;;;;;5117017;28;20506;-66
2024/03/24 04:31:37;;;;;;;2.20;0.80;;;5.50;73.80;;;;;;5117411;28;20211;-66
2024/03/24 04:37:27;;;;;;;1.70;0.60;;;5.50;73.80;;;;;;5117034;28;20187;-66
2024/03/24 04:39:59;;;;;;;1.90;0.75;;;5.60;73.60;;;;;;5116623;28;20255;-66
2024/03/24 04:43:07;;;;;;;5.32;1.10;;;5.50;73.10;;;;;;5116333;28;20233;-66
2024/03/24 04:45:34;;;;;;;1.85;0.60;;;5.50;73.70;;;;;;5116461;28;20169;-63
2024/03/24 04:48:02;;;;;;;2.20;0.90;;;5.50;73.50;;;;;;5117258;28;20238;-63
2024/03/24 04:53:52;;;;;;;2.10;0.90;;;5.60;73.70;;;;;;5116666;28;20550;-64
2024/03/24 04:59:41;;;;;;;2.42;0.75;;;5.60;73.10;;;;;;5116586;28;20501;-65
2024/03/24 05:02:10;;;;;;;1.90;0.70;;;5.60;72.50;;;;;;5115875;28;20257;-65
2024/03/24 05:07:58;;;;;;;5.20;1.90;;;5.60;72.70;;;;;;5116430;28;20197;-65
2024/03/24 05:13:49;;;;;;;4.95;0.90;;;5.70;72.70;;;;;;5116255;28;20195;-65
2024/03/24 05:19:38;;;;;;;2.40;1.40;;;5.60;72.90;;;;;;5115678;28;20151;-65
2024/03/24 05:25:27;;;;;;;2.25;1.20;;;5.70;72.80;;;;;;5114921;28;20260;-65
2024/03/24 05:31:17;;;;;;;2.75;1.50;;;5.80;72.90;;;;;;5115752;28;20213;-65
2024/03/24 05:34:20;;;;;;;3.10;1.80;;;5.80;72.80;;;;;;5116063;28;20233;-65
2024/03/24 05:36:47;;;;;;;2.08;1.02;;;5.80;73.50;;;;;;5114585;28;20187;-65
2024/03/24 05:42:36;;;;;;;3.47;1.55;;;5.90;74.20;;;;;;5114868;28;20215;-65
2024/03/24 05:49:02;;;;;;;2.10;0.80;;;6.00;74.70;;;;;;5115181;28;20180;-65
2024/03/24 05:51:29;;;;;;;1.80;0.70;;;6.10;73.30;;;;;;5098096;28;20305;-65
2024/03/24 05:57:18;;;;;;;1.90;0.60;;;6.10;74.10;;;;;;5115070;28;20167;-65
2024/03/24 05:59:49;;;;;;;3.08;0.70;;;6.10;74.50;;;;;;5114039;28;20517;-66
2024/03/24 06:02:40;;;;;;;1.70;0.60;;;6.10;73.90;;;;;;5114735;28;20173;-65
2024/03/24 06:05:07;;;;;;;1.90;0.70;;;6.20;73.40;;;;;;5114431;28;20232;-65
2024/03/24 06:11:03;;;;;;;2.03;0.70;;;6.20;73.80;;;;;;5114981;28;20169;-65
2024/03/24 06:16:52;;;;;;;1.83;0.77;;;6.30;73.80;;;;;;5114234;28;20205;-65
2024/03/24 06:19:19;;;;;;;2.03;0.80;;;6.30;73.30;;;;;;5113798;28;20225;-66
2024/03/24 06:25:08;;;;;;;1.85;0.63;;;6.30;72.60;;;;;;5113800;28;20191;-66
2024/03/24 06:27:36;;;;;;;1.80;0.60;;;6.30;72.80;;;;;;5114513;28;20180;-65
2024/03/24 06:33:26;;;;;;;1.80;0.80;;;6.40;73.00;;;;;;5113827;28;20176;-65
2024/03/24 06:36:09;;;;;;;1.70;0.60;;;6.50;73.70;;;;;;5114778;28;20212;-65
2024/03/24 06:38:35;;;;;;;1.80;0.60;;;6.50;73.60;;;;;;5114271;28;20264;-65
2024/03/24 06:41:02;;;;;;;1.70;0.50;;;6.50;72.80;;;;;;5114784;28;20260;-65
2024/03/24 06:43:55;;;;;;;2.65;0.60;;;6.60;72.20;;;;;;5110852;28;20445;-65
2024/03/24 06:46:22;;;;;;;2.13;0.80;;;6.60;72.50;;;;;;5115030;28;20176;-65
2024/03/24 06:49:21;;;;;;;1.85;0.98;;;6.60;71.90;;;;;;5113686;28;20520;-65
2024/03/24 06:51:47;;;;;;;1.80;0.70;;;6.60;71.70;;;;;;5112033;28;20173;-65
2024/03/24 06:54:14;;;;;;;2.17;0.87;;;6.70;71.50;;;;;;5112822;28;20244;-65
2024/03/24 06:56:48;;;;;;;2.20;1.08;;;6.70;71.90;;;;;;5114807;28;20418;-65
2024/03/24 06:59:16;;;;;;;2.17;1.17;;;6.70;71.30;;;;;;5073127;28;20261;-66
2024/03/24 07:01:59;;;;;;;2.30;1.40;;;6.80;71.10;;;;;;5073638;28;20210;-65
2024/03/24 07:04:26;;;;;;;2.20;1.00;;;6.80;71.60;;;;;;5093081;28;20219;-65
2024/03/24 07:06:52;;;;;;;2.17;1.05;;;6.80;71.10;;;;;;5092827;28;20219;-65
2024/03/24 07:09:19;;;;;;;2.10;0.90;;;6.80;71.40;;;;;;5093173;28;20181;-65
2024/03/24 07:12:00;;;;;;;1.80;0.65;;;6.90;71.60;;;;;;5105212;28;20422;-65
2024/03/24 07:14:28;;;;;;;1.90;0.50;;;6.80;71.60;;;;;;5103156;28;20658;-66
2024/03/24 07:16:55;;;;;;;1.70;0.70;;;6.90;71.30;;;;;;5113671;28;20238;-65
2024/03/24 07:19:22;;;;;;;1.83;0.70;;;6.90;71.90;;;;;;5101909;28;20271;-65
2024/03/24 07:21:49;;;;;;;1.70;0.57;;;7.00;71.90;;;;;;5112641;28;20187;-66
2024/03/24 07:24:35;;;;;;;2.00;0.73;;;7.00;71.70;;;;;;5111213;28;20208;-65
2024/03/24 07:27:02;;;;;;;1.65;0.57;;;7.00;72.40;;;;;;5098221;28;20247;-66
2024/03/24 07:29:40;;;;;;;2.10;0.70;;;7.00;71.40;;;;;;5092880;28;20254;-66
2024/03/24 07:32:13;;;;;;;2.20;0.70;;;7.00;71.30;;;;;;5091951;28;20268;-65
2024/03/24 07:34:44;;;;;;;2.22;0.75;;;7.00;70.90;;;;;;5097726;28;20188;-68
2024/03/24 07:37:10;;;;;;;1.80;0.70;;;7.00;71.50;;;;;;5110049;28;20196;-66
2024/03/24 07:39:37;;;;;;;1.90;0.70;;;7.00;71.80;;;;;;5093765;28;20640;-65
2024/03/24 07:42:03;;;;;;;4.35;0.93;;;7.00;71.80;;;;;;5093092;28;20212;-65
2024/03/24 07:44:32;;;;;;;2.03;0.70;;;7.00;72.40;;;;;;5105499;28;20591;-65
2024/03/24 07:46:59;;;;;;;1.80;0.70;;;7.10;72.50;;;;;;5112265;28;20634;-65
2024/03/24 07:49:40;;;;;;;1.83;0.60;;;7.10;73.00;;;;;;5113425;28;20172;-65
2024/03/24 07:52:06;;;;;;;1.70;0.60;;;7.10;72.20;;;;;;5113459;28;20172;-65
2024/03/24 07:54:49;;;;;;;2.00;0.80;;;7.20;70.10;;;;;;5113209;28;20180;-65
2024/03/24 07:57:15;;;;;;;2.05;0.77;;;7.10;69.60;;;;;;5112769;28;20220;-65
2024/03/24 07:59:44;;;;;;;2.40;0.80;;;7.10;70.50;;;;;;5113222;28;20325;-66
2024/03/24 08:06:06;;;;;;;3.85;0.80;;;7.10;70.50;;;;;;5117249;28;20221;-66
2024/03/24 08:12:04;;;;;;;2.67;1.00;;;7.10;69.40;;;;;;5116613;28;20206;-66
2024/03/24 08:17:55;;;;;;;4.15;1.50;;;7.10;69.50;;;;;;5116886;28;20194;-66
2024/03/24 08:21:10;;;;;;;2.10;0.70;;;7.10;70.30;;;;;;5113187;28;20207;-66
2024/03/24 08:23:37;;;;;;;2.20;1.08;;;7.20;70.50;;;;;;5115302;28;20180;-66
2024/03/24 08:29:26;;;;;;;2.15;0.85;;;7.30;69.20;;;;;;5115882;28;20518;-66
2024/03/24 08:31:52;;;;;;;2.55;1.23;;;7.30;69.30;;;;;;5115991;28;20217;-66
2024/03/24 08:34:20;;;;;;;2.50;1.00;;;7.30;69.90;;;;;;5116530;28;20651;-66
2024/03/24 08:37:01;;;;;;;2.15;1.00;;;7.40;70.00;;;;;;5111116;28;20249;-66
2024/03/24 08:39:28;;;;;;;2.08;0.80;;;7.50;70.10;;;;;;5115431;28;20626;-67
2024/03/24 08:41:57;;;;;;;1.73;0.60;;;7.60;69.80;;;;;;5114835;28;20532;-66
2024/03/24 08:44:24;;;;;;;2.42;0.90;;;7.80;67.70;;;;;;5116048;28;20245;-66
2024/03/24 08:50:15;;;;;;;1.95;0.75;;;7.90;67.70;;;;;;5114597;28;20164;-66
2024/03/24 08:52:41;;;;;;;2.47;0.93;;;8.00;67.80;;;;;;5115686;28;20660;-66
2024/03/24 08:56:04;;;;;;;2.20;0.90;;;8.00;67.80;;;;;;5098864;28;20272;-65
2024/03/24 08:58:30;;;;;;;2.10;0.80;;;8.10;68.30;;;;;;5113552;28;20418;-66
2024/03/24 09:00:57;;;;;;;2.60;0.82;;;8.20;65.70;;;;;;5106123;28;20638;-66
2024/03/24 09:03:23;;;;;;;2.15;1.08;;;8.30;64.50;;;;;;5099970;28;20217;-66
2024/03/24 09:05:51;;;;;;;3.03;1.20;;;8.20;62.00;;;;;;5099691;28;20670;-65
2024/03/24 09:08:17;;;;;;;3.28;0.90;;;8.20;61.60;;;;;;5115590;28;20503;-65
2024/03/24 09:10:47;;;;;;;2.37;0.90;;;8.10;61.30;;;;;;5115847;28;20607;-65
2024/03/24 09:13:13;;;;;;;3.25;0.77;;;8.10;59.60;;;;;;5114900;28;20449;-65
2024/03/24 09:15:56;;;;;;;1.73;0.60;;;8.10;59.90;;;;;;5115813;28;20608;-65
2024/03/24 09:18:22;;;;;;;2.10;0.80;;;8.00;60.30;;;;;;5115295;28;20907;-65
2024/03/24 09:20:49;;;;;;;1.95;0.70;;;8.00;60.00;;;;;;5116069;28;20259;-66
2024/03/24 09:23:16;;;;;;;1.90;0.70;;;8.00;61.40;;;;;;5114698;28;20627;-66
2024/03/24 09:25:50;;;;;;;1.77;0.60;;;8.00;60.20;;;;;;5105629;28;20212;-66
2024/03/24 09:32:13;;;;;;;2.42;0.77;;;8.10;62.00;;;;;;5115039;28;20251;-66
2024/03/24 09:34:41;;;;;;;2.08;0.93;;;8.10;61.10;;;;;;5116235;28;20593;-65
2024/03/24 09:41:05;;;;;;;2.30;0.90;;;7.80;60.30;;;;;;5115009;28;20201;-66
2024/03/24 09:43:31;;;;;;;4.43;2.38;;;7.50;60.30;;;;;;5095898;28;20258;-65
2024/03/24 09:49:29;;;;;;;2.25;0.90;;;7.10;61.00;;;;;;5093718;28;20268;-65
2024/03/24 09:56:11;;;;;;;3.33;1.65;;;6.90;61.70;;;;;;5093899;28;20226;-65
2024/03/24 09:58:44;;;;;;;5.20;2.97;;;6.80;63.90;;;;;;5077206;28;20186;-66
2024/03/24 10:01:11;;;;;;;6.13;2.65;;;6.90;65.30;;;;;;5093106;28;20268;-65
2024/03/24 10:04:24;;;;;;;17.20;9.75;;;7.00;67.00;;;;;;5094494;28;20234;-66
2024/03/24 10:06:50;;;;;;;9.00;5.28;;;7.40;70.50;;;;;;5074532;28;20205;-66
2024/03/24 10:09:17;;;;;;;6.00;4.00;;;7.80;69.20;;;;;;5074558;28;20283;-66
2024/03/24 10:11:56;;;;;;;2.75;1.08;;;8.40;68.00;;;;;;5090996;28;20914;-66
2024/03/24 10:14:27;;;;;;;2.30;1.13;;;8.90;67.00;;;;;;5094786;28;20177;-66
2024/03/24 10:17:14;;;;;;;2.55;1.25;;;9.50;66.00;;;;;;5093350;28;20252;-66
2024/03/24 10:19:41;;;;;;;3.00;0.88;;;10.00;57.80;;;;;;5086312;28;20266;-66
2024/03/24 10:22:15;;;;;;;2.90;1.20;;;10.00;53.80;;;;;;5093619;28;20228;-66
2024/03/24 10:24:44;;;;;;;1.90;0.70;;;9.90;55.00;;;;;;5093196;28;20196;-66
2024/03/24 10:27:12;;;;;;;2.50;1.42;;;9.80;54.80;;;;;;5080375;28;20275;-66
2024/03/24 10:29:41;;;;;;;1.80;0.70;;;9.70;55.60;;;;;;5093644;28;20218;-66
2024/03/24 10:35:32;;;;;;;3.28;1.20;;;10.10;54.70;;;;;;5087548;28;20633;-68
2024/03/24 10:38:00;;;;;;;2.40;1.27;;;10.00;54.00;;;;;;5108451;28;20249;-66
2024/03/24 10:40:28;;;;;;;4.10;1.50;;;9.90;55.30;;;;;;5113558;28;20189;-66
2024/03/24 10:42:54;;;;;;;2.95;1.25;;;9.90;55.80;;;;;;5114084;28;20212;-66
2024/03/24 10:45:25;;;;;;;3.55;1.55;;;9.90;56.30;;;;;;5113728;28;20322;-66
2024/03/24 10:47:54;;;;;;;5.20;1.10;;;9.90;55.90;;;;;;5112506;28;20244;-66
2024/03/24 10:50:21;;;;;;;3.03;1.05;;;10.00;54.10;;;;;;5113597;28;20192;-66
2024/03/24 10:52:55;;;;;;;2.30;1.20;;;9.90;54.40;;;;;;5113440;28;21029;-66
2024/03/24 10:55:24;;;;;;;2.33;0.90;;;9.90;55.00;;;;;;5114013;28;20220;-66
2024/03/24 10:57:51;;;;;;;2.28;1.00;;;10.00;55.00;;;;;;5113077;28;20184;-66
2024/03/24 11:00:19;;;;;;;2.33;0.95;;;10.40;55.30;;;;;;5113427;28;20537;-66
2024/03/24 11:02:47;;;;;;;3.33;1.20;;;11.20;53.40;;;;;;5113365;28;20610;-66
2024/03/24 11:05:15;;;;;;;3.13;0.90;;;11.90;50.00;;;;;;5113512;28;20311;-66
2024/03/24 11:07:41;;;;;;;3.35;1.40;;;12.10;50.00;;;;;;5113749;28;20192;-67
2024/03/24 11:10:09;;;;;;;3.50;1.30;;;12.00;48.80;;;;;;5112923;28;20180;-67
2024/03/24 11:12:36;;;;;;;3.67;1.48;;;11.80;49.60;;;;;;5113962;28;20609;-66
2024/03/24 11:15:06;;;;;;;2.80;0.90;;;11.80;47.70;;;;;;5113646;28;20192;-66
2024/03/24 11:17:33;;;;;;;3.40;1.73;;;11.70;48.10;;;;;;5113805;28;20203;-66
2024/03/24 11:20:05;;;;;;;4.30;1.60;;;11.50;48.40;;;;;;5112567;28;20210;-67
2024/03/24 11:22:34;;;;;;;2.37;0.90;;;11.40;47.70;;;;;;5113469;28;20529;-66
2024/03/24 11:25:03;;;;;;;3.10;1.17;;;11.80;47.50;;;;;;5113248;28;20477;-66
2024/03/24 11:27:29;;;;;;;2.43;1.00;;;12.50;46.20;;;;;;5113601;28;20426;-66
2024/03/24 11:29:58;;;;;;;3.40;1.23;;;13.50;44.80;;;;;;5113267;28;20553;-66
2024/03/24 11:32:48;;;;;;;2.90;1.60;;;14.30;43.60;;;;;;5113585;28;20442;-66
2024/03/24 11:35:19;;;;;;;4.00;1.33;;;15.40;45.30;;;;;;5113721;28;20414;-66
2024/03/24 11:37:52;;;;;;;3.50;1.30;;;16.10;40.40;;;;;;5117647;28;20469;-66
2024/03/24 11:40:22;;;;;;;2.10;0.80;;;16.60;37.30;;;;;;5116786;28;20422;-65
2024/03/24 11:42:56;;;;;;;3.70;1.03;;;16.90;34.00;;;;;;5117594;28;20807;-66
2024/03/24 11:45:28;;;;;;;3.50;1.57;;;17.10;33.30;;;;;;5117712;28;20450;-66
2024/03/24 11:48:27;;;;;;;3.93;1.43;;;17.30;32.50;;;;;;5116332;28;20470;-65
2024/03/24 11:51:00;;;;;;;5.07;2.33;;;17.00;30.40;;;;;;5115510;28;20721;-66
2024/03/24 11:53:29;;;;;;;2.20;0.87;;;16.20;30.20;;;;;;5117268;28;20428;-66
2024/03/24 11:55:58;;;;;;;2.70;1.10;;;15.40;31.50;;;;;;5117172;28;21032;-66
2024/03/24 11:58:25;;;;;;;3.80;1.30;;;14.70;31.80;;;;;;5116936;28;20513;-66
2024/03/24 12:00:54;;;;;;;4.93;1.30;;;14.20;33.20;;;;;;5116334;28;20583;-66
2024/03/24 12:03:21;;;;;;;1.80;0.70;;;13.60;35.00;;;;;;5117089;28;20503;-66
2024/03/24 12:05:50;;;;;;;5.53;1.77;;;13.10;36.00;;;;;;5116774;28;20480;-67
2024/03/24 12:08:20;;;;;;;2.83;1.80;;;12.70;36.20;;;;;;5116338;28;20479;-66
2024/03/24 12:10:48;;;;;;;6.03;2.90;;;12.30;37.10;;;;;;5117137;28;20434;-66
2024/03/24 12:13:15;;;;;;;5.10;1.17;;;11.90;37.60;;;;;;5117228;28;20431;-66
2024/03/24 12:15:44;;;;;;;2.43;0.93;;;11.60;38.60;;;;;;5117185;28;20456;-66
2024/03/24 12:18:11;;;;;;;3.00;1.30;;;11.20;40.00;;;;;;5116552;28;20476;-66
2024/03/24 12:20:38;;;;;;;2.97;0.97;;;10.90;41.50;;;;;;5116449;28;20198;-66
2024/03/24 12:23:04;;;;;;;2.50;1.00;;;10.60;41.60;;;;;;5107048;28;20527;-66
2024/03/24 12:25:33;;;;;;;3.10;1.60;;;10.40;42.50;;;;;;5096166;28;20289;-66
2024/03/24 12:28:00;;;;;;;2.40;0.90;;;10.30;41.90;;;;;;5106471;28;20276;-66
2024/03/24 12:30:28;;;;;;;2.45;1.00;;;10.20;42.20;;;;;;5116132;28;20180;-66
2024/03/24 12:32:56;;;;;;;3.40;1.35;;;10.20;42.70;;;;;;5101701;28;20189;-66
2024/03/24 12:35:23;;;;;;;4.18;1.10;;;10.30;43.30;;;;;;5095196;28;20235;-66
2024/03/24 12:37:51;;;;;;;2.75;1.17;;;10.40;43.30;;;;;;5104989;28;20267;-66
2024/03/24 12:40:19;;;;;;;3.05;1.55;;;10.50;43.60;;;;;;5116054;28;20202;-66
2024/03/24 12:42:47;;;;;;;3.65;1.60;;;10.60;44.30;;;;;;5116935;28;20184;-67
2024/03/24 12:45:16;;;;;;;2.63;1.40;;;10.60;43.90;;;;;;5116136;28;20212;-66
2024/03/24 12:47:42;;;;;;;2.30;1.10;;;10.70;42.70;;;;;;5114579;28;20220;-66
2024/03/24 12:50:28;;;;;;;2.42;1.30;;;10.60;41.90;;;;;;5115966;28;20173;-66
2024/03/24 12:53:05;;;;;;;2.47;1.20;;;10.50;43.60;;;;;;5116264;28;20534;-66
2024/03/24 12:55:36;;;;;;;2.30;1.02;;;10.40;42.90;;;;;;5115923;28;20195;-66
2024/03/24 12:58:11;;;;;;;2.38;1.13;;;10.40;42.10;;;;;;5115549;28;20184;-66
2024/03/24 13:00:38;;;;;;;2.80;1.20;;;10.20;42.60;;;;;;5116609;28;20199;-66
2024/03/24 13:03:08;;;;;;;2.90;1.33;;;10.10;42.10;;;;;;5115586;28;20188;-66
2024/03/24 13:05:35;;;;;;;3.55;1.05;;;10.10;43.00;;;;;;5116028;28;20640;-66
2024/03/24 13:08:01;;;;;;;4.55;1.17;;;10.00;43.30;;;;;;5116194;28;20220;-66
2024/03/24 13:10:30;;;;;;;4.60;1.35;;;9.90;44.70;;;;;;5115939;28;20185;-66
2024/03/24 13:12:56;;;;;;;3.75;1.10;;;9.90;45.20;;;;;;5115856;28;20283;-66
2024/03/24 13:15:25;;;;;;;7.23;1.70;;;9.90;46.00;;;;;;5115630;28;20286;-66
2024/03/24 13:17:57;;;;;;;3.20;1.50;;;9.90;45.30;;;;;;5115623;28;20461;-66
2024/03/24 13:20:26;;;;;;;4.25;1.40;;;9.90;45.40;;;;;;5115264;28;20208;-66
2024/03/24 13:22:52;;;;;;;2.50;1.20;;;9.90;44.90;;;;;;5116200;28;20192;-66
2024/03/24 13:25:21;;;;;;;2.97;1.17;;;9.90;45.00;;;;;;5115215;28;20642;-66
2024/03/24 13:27:49;;;;;;;2.60;1.33;;;9.90;45.10;;;;;;5115765;28;20191;-66
2024/03/24 13:30:16;;;;;;;3.53;1.83;;;9.90;46.50;;;;;;5115405;28;20703;-66
2024/03/24 13:32:43;;;;;;;2.60;1.30;;;10.00;46.80;;;;;;5115545;28;20253;-66
2024/03/24 13:35:12;;;;;;;3.33;0.90;;;10.40;46.50;;;;;;5115489;28;20241;-66
2024/03/24 13:37:44;;;;;;;3.17;1.25;;;10.80;44.30;;;;;;5115591;28;20526;-65
2024/03/24 13:40:18;;;;;;;3.83;2.17;;;11.20;44.00;;;;;;5115674;28;20342;-65
2024/03/24 13:42:59;;;;;;;2.40;1.10;;;11.30;42.20;;;;;;5115336;28;20256;-65
2024/03/24 13:45:30;;;;;;;7.05;1.70;;;11.50;43.20;;;;;;5115209;28;20203;-66
2024/03/24 13:48:10;;;;;;;2.10;0.95;;;11.70;43.30;;;;;;5114999;28;20213;-66
2024/03/24 13:50:38;;;;;;;2.70;1.20;;;11.90;43.00;;;;;;5115364;28;20527;-66
2024/03/24 13:53:06;;;;;;;2.57;1.17;;;12.10;42.20;;;;;;5114830;28;20467;-66
2024/03/24 13:55:33;;;;;;;2.60;1.53;;;12.10;40.50;;;;;;5114790;28;20431;-66
2024/03/24 13:58:00;;;;;;;2.57;1.67;;;12.10;40.80;;;;;;5114837;28;20920;-66
2024/03/24 14:00:27;;;;;;;3.27;1.33;;;12.10;41.20;;;;;;5114688;28;20499;-66
2024/03/24 14:02:57;;;;;;;2.00;1.10;;;12.00;39.60;;;;;;5114730;28;20521;-67
2024/03/24 14:05:25;;;;;;;2.92;1.10;;;11.80;40.60;;;;;;5115004;28;20537;-66
2024/03/24 14:07:51;;;;;;;4.25;1.15;;;11.70;41.00;;;;;;5114510;28;20231;-66
2024/03/24 14:10:18;;;;;;;4.30;1.20;;;11.60;40.80;;;;;;5114658;28;20241;-66
2024/03/24 14:12:56;;;;;;;2.43;0.90;;;11.50;41.70;;;;;;5114540;28;20275;-66
2024/03/24 14:15:32;;;;;;;3.80;1.23;;;11.40;41.60;;;;;;5114875;28;20422;-66
2024/03/24 14:18:11;;;;;;;2.83;1.30;;;11.30;42.50;;;;;;5114486;28;20865;-66
2024/03/24 14:20:53;;;;;;;1.90;0.82;;;11.30;42.20;;;;;;5114911;28;20422;-66
2024/03/24 14:23:22;;;;;;;2.70;1.40;;;11.20;41.60;;;;;;5114504;28;20172;-66
2024/03/24 14:25:52;;;;;;;4.38;1.60;;;11.10;41.30;;;;;;5114236;28;20234;-66
2024/03/24 14:28:18;;;;;;;3.15;1.58;;;11.00;42.30;;;;;;5114370;28;20184;-66
2024/03/24 14:30:45;;;;;;;3.60;1.50;;;10.90;42.40;;;;;;5114470;28;20229;-66
2024/03/24 14:33:11;;;;;;;2.10;1.10;;;10.80;42.00;;;;;;5114623;28;20438;-66
2024/03/24 14:35:57;;;;;;;2.97;1.00;;;10.70;42.20;;;;;;5114331;28;20688;-66
2024/03/24 14:38:36;;;;;;;2.30;0.95;;;10.60;42.50;;;;;;5114377;28;20433;-66
2024/03/24 14:41:14;;;;;;;3.22;1.27;;;10.50;43.30;;;;;;5114197;28;20172;-66
2024/03/24 14:43:55;;;;;;;4.45;1.05;;;10.40;42.90;;;;;;5114460;28;20573;-66
2024/03/24 14:46:34;;;;;;;3.20;1.40;;;10.30;42.70;;;;;;5114293;28;20200;-66
2024/03/24 14:48:59;;;;;;;2.03;1.00;;;10.10;43.30;;;;;;5113897;28;20243;-66
2024/03/24 14:51:28;;;;;;;2.00;0.90;;;10.10;43.50;;;;;;5114308;28;20211;-66
2024/03/24 14:53:54;;;;;;;2.45;1.27;;;10.00;43.60;;;;;;5114171;28;20466;-66
2024/03/24 14:56:21;;;;;;;2.70;1.20;;;9.90;44.70;;;;;;5114794;28;20554;-66
2024/03/24 14:58:47;;;;;;;3.30;0.95;;;9.90;45.30;;;;;;5113925;28;20643;-66
2024/03/24 15:01:14;;;;;;;2.40;1.10;;;9.80;44.90;;;;;;5113853;28;20191;-66
2024/03/24 15:03:40;;;;;;;4.88;1.20;;;9.80;44.60;;;;;;5114363;28;20196;-66
2024/03/24 15:06:08;;;;;;;2.40;0.90;;;9.70;44.90;;;;;;5114135;28;20204;-66
2024/03/24 15:08:35;;;;;;;2.22;1.05;;;9.70;45.40;;;;;;5113762;28;20438;-66
2024/03/24 15:11:02;;;;;;;2.70;1.35;;;9.70;45.30;;;;;;5113173;28;20192;-66
2024/03/24 15:13:29;;;;;;;4.82;1.00;;;9.60;45.80;;;;;;5113930;28;20185;-66
2024/03/24 15:15:56;;;;;;;2.42;1.00;;;9.60;45.90;;;;;;5113848;28;20192;-66
2024/03/24 15:18:22;;;;;;;2.00;0.70;;;9.60;45.60;;;;;;5113591;28;20215;-66
2024/03/24 15:20:49;;;;;;;4.13;1.17;;;9.50;45.70;;;;;;5113573;28;20220;-66
2024/03/24 15:23:15;;;;;;;2.75;0.90;;;9.50;45.70;;;;;;5113438;28;20434;-66
2024/03/24 15:25:44;;;;;;;2.40;1.20;;;9.50;45.30;;;;;;5113776;28;20709;-66
2024/03/24 15:28:10;;;;;;;2.42;1.08;;;9.40;45.60;;;;;;5111916;28;20427;-67
2024/03/24 15:30:37;;;;;;;2.13;1.05;;;9.40;44.70;;;;;;5113394;28;20195;-66
2024/03/24 15:33:03;;;;;;;2.63;1.10;;;9.40;44.80;;;;;;5113719;28;20184;-66
2024/03/24 15:35:33;;;;;;;2.55;1.10;;;9.30;44.70;;;;;;5113741;28;20196;-66
2024/03/24 15:37:59;;;;;;;3.10;1.10;;;9.30;44.90;;;;;;5113351;28;20192;-66
2024/03/24 15:40:25;;;;;;;3.30;1.30;;;9.30;44.80;;;;;;5112954;28;20188;-66
2024/03/24 15:42:55;;;;;;;3.45;1.10;;;9.30;45.10;;;;;;5113993;28;20426;-66
2024/03/24 15:45:21;;;;;;;2.75;1.50;;;9.20;44.40;;;;;;5113713;28;20682;-66
2024/03/24 15:47:48;;;;;;;2.08;1.20;;;9.20;44.90;;;;;;5113291;28;20670;-66
2024/03/24 15:50:15;;;;;;;2.97;1.02;;;9.30;43.70;;;;;;5113332;28;20226;-66